Time;durP1;ratioP1;P1;durP2;ratioP2;P2;SDS_P1;SDS_P2;PMS_P1;PMS_P2;Temp;Humidity;BMP_temperature;BMP_pressure;BME280_temperature;BME280_humidity;BME280_pressure;Samples;Min_cycle;Max_cycle;Signal;HPM_P1;HPM_P2
2022/01/03 00:02:24;;;;;;;35.20;24.90;;;;;;;9.09;64.27;94932.47;5058953;28;20422;-77
2022/01/03 00:04:49;;;;;;;32.73;23.17;;;;;;;9.22;63.64;94923.19;5048673;28;20493;-77
2022/01/03 00:07:15;;;;;;;32.20;26.40;;;;;;;9.08;64.97;94930.03;5061137;28;20440;-77
2022/01/03 00:09:41;;;;;;;29.80;24.50;;;;;;;8.74;64.98;94929.50;5068482;28;20183;-77
2022/01/03 00:12:07;;;;;;;33.67;22.90;;;;;;;9.04;64.03;94915.72;5071057;28;20513;-76
2022/01/03 00:14:34;;;;;;;29.47;23.67;;;;;;;8.71;64.84;94924.66;5088602;28;20169;-77
2022/01/03 00:16:59;;;;;;;29.10;21.77;;;;;;;9.08;64.03;94909.16;5051157;28;20429;-77
2022/01/03 00:19:25;;;;;;;30.13;24.40;;;;;;;8.66;65.23;94900.88;5049712;28;21022;-76
2022/01/03 00:21:55;;;;;;;29.00;21.80;;;;;;;8.95;64.10;94901.94;5049838;28;20152;-76
2022/01/03 00:24:27;;;;;;;29.30;24.10;;;;;;;8.90;65.17;94896.44;5047823;28;20191;-77
2022/01/03 00:27:00;;;;;;;30.23;23.27;;;;;;;9.11;64.61;94888.72;5065698;28;20420;-77
2022/01/03 00:29:29;;;;;;;30.23;22.33;;;;;;;9.30;63.33;94883.97;5067617;28;20440;-77
2022/01/03 00:31:57;;;;;;;31.10;23.73;;;;;;;9.23;63.68;94881.25;5067888;28;20417;-76
2022/01/03 00:34:24;;;;;;;28.17;23.40;;;;;;;8.92;64.06;94874.41;5069602;28;20483;-77
2022/01/03 00:36:51;;;;;;;25.73;22.30;;;;;;;8.97;63.99;94879.06;5068502;28;20409;-76
2022/01/03 00:39:17;;;;;;;27.27;22.23;;;;;;;9.51;62.49;94884.03;5069161;28;20443;-76
2022/01/03 00:41:46;;;;;;;35.60;24.40;;;;;;;9.08;63.38;94885.66;5077578;28;20484;-76
2022/01/03 00:44:11;;;;;;;28.20;21.47;;;;;;;8.94;63.73;94897.72;5069619;28;20162;-76
2022/01/03 00:46:37;;;;;;;27.30;22.63;;;;;;;9.29;63.53;94911.06;5069330;28;20412;-77
2022/01/03 00:49:04;;;;;;;27.20;22.03;;;;;;;8.73;64.38;94917.47;5068007;28;20170;-78
2022/01/03 00:51:30;;;;;;;27.80;24.00;;;;;;;9.14;63.89;94924.94;5066415;28;20480;-77
2022/01/03 00:53:55;;;;;;;28.67;22.27;;;;;;;8.95;64.45;94930.63;5066703;28;20777;-78
2022/01/03 00:56:29;;;;;;;26.60;20.07;;;;;;;8.64;65.06;94907.25;5067721;28;20171;-76
2022/01/03 00:59:07;;;;;;;28.77;20.60;;;;;;;8.60;64.75;94896.38;5068842;28;20241;-78
2022/01/03 01:01:36;;;;;;;28.53;21.77;;;;;;;8.43;65.26;94898.28;5067618;28;20421;-77
2022/01/03 01:04:03;;;;;;;26.57;22.03;;;;;;;8.73;64.75;94886.16;5069045;28;20484;-77
2022/01/03 01:06:35;;;;;;;24.93;19.57;;;;;;;8.60;65.02;94859.84;5067911;28;20417;-77
2022/01/03 01:09:03;;;;;;;24.30;19.33;;;;;;;8.57;66.16;94850.59;5063322;28;20937;-78
2022/01/03 01:11:30;;;;;;;25.20;19.87;;;;;;;8.53;65.10;94848.50;5048066;28;20553;-77
2022/01/03 01:13:56;;;;;;;29.03;21.13;;;;;;;8.74;66.05;94853.03;5048804;28;20418;-77
2022/01/03 01:16:23;;;;;;;26.00;22.03;;;;;;;8.87;65.15;94844.59;5063018;28;20430;-77
2022/01/03 01:18:50;;;;;;;25.50;20.77;;;;;;;8.69;65.38;94843.16;5060357;28;20234;-77
2022/01/03 01:21:16;;;;;;;26.07;20.13;;;;;;;9.15;64.04;94845.59;5058463;28;20473;-77
2022/01/03 01:23:43;;;;;;;25.80;18.57;;;;;;;8.42;65.52;94846.31;5099501;28;20413;-77
2022/01/03 01:28:53;;;;;;;24.17;20.07;;;;;;;8.62;65.45;94859.69;5067121;28;20423;-77
2022/01/03 01:31:23;;;;;;;27.57;20.77;;;;;;;8.63;65.51;94854.25;5065630;28;20460;-76
2022/01/03 01:33:55;;;;;;;25.37;21.17;;;;;;;9.19;63.82;94846.84;5066719;28;20183;-77
2022/01/03 01:36:27;;;;;;;22.33;18.60;;;;;;;9.31;62.80;94846.41;5067515;28;20431;-77
2022/01/03 01:38:59;;;;;;;25.03;18.60;;;;;;;8.51;66.15;94838.22;5065351;28;20432;-78
2022/01/03 01:41:27;;;;;;;19.83;17.83;;;;;;;8.25;66.02;94842.97;5065064;28;20429;-77
2022/01/03 01:43:57;;;;;;;25.93;17.57;;;;;;;8.62;65.46;94839.63;5067281;28;20417;-77
2022/01/03 01:46:24;;;;;;;21.23;16.97;;;;;;;8.82;64.35;94841.72;5068943;28;20429;-77
2022/01/03 01:48:51;;;;;;;20.87;17.60;;;;;;;8.99;63.48;94827.50;5067077;28;20918;-76
2022/01/03 01:51:19;;;;;;;21.50;17.03;;;;;;;8.72;65.14;94824.50;5068187;28;20463;-77
2022/01/03 01:53:49;;;;;;;22.80;18.40;;;;;;;8.60;64.85;94831.16;5068274;28;20413;-78
2022/01/03 01:56:23;;;;;;;24.50;19.37;;;;;;;8.48;65.82;94843.00;5066881;28;20441;-77
2022/01/03 01:58:58;;;;;;;25.17;17.87;;;;;;;8.75;63.79;94837.22;5065098;28;20882;-77
2022/01/03 02:01:48;;;;;;;20.93;18.03;;;;;;;8.60;65.18;94838.97;5068725;28;20894;-76
2022/01/03 02:04:18;;;;;;;21.27;16.43;;;;;;;8.92;64.00;94840.47;5062044;28;20449;-76
2022/01/03 02:06:47;;;;;;;22.50;16.70;;;;;;;8.76;63.96;94830.19;5068937;28;20436;-76
2022/01/03 02:09:23;;;;;;;23.20;16.73;;;;;;;8.79;64.17;94820.19;5065224;28;20464;-77
2022/01/03 02:11:52;;;;;;;22.97;17.50;;;;;;;8.44;64.64;94808.63;5064872;28;20468;-77
2022/01/03 02:14:19;;;;;;;20.77;15.40;;;;;;;8.64;64.88;94803.72;5065766;28;20856;-77
2022/01/03 02:16:45;;;;;;;23.60;15.77;;;;;;;8.40;66.27;94797.72;5065541;28;20417;-77
2022/01/03 02:19:12;;;;;;;20.13;16.13;;;;;;;8.89;63.58;94790.44;5064708;28;20935;-78
2022/01/03 02:21:38;;;;;;;19.33;16.50;;;;;;;8.92;64.19;94785.66;5064894;28;20174;-78
2022/01/03 02:24:04;;;;;;;22.20;17.10;;;;;;;8.56;65.12;94772.50;5056561;28;20436;-76
2022/01/03 02:26:30;;;;;;;21.37;16.73;;;;;;;8.56;65.60;94775.13;5049360;28;20179;-76
2022/01/03 02:28:56;;;;;;;22.37;15.77;;;;;;;8.62;65.11;94763.97;5065869;28;20520;-77
2022/01/03 02:31:22;;;;;;;22.20;17.00;;;;;;;8.68;64.34;94757.22;5065709;28;20469;-77
2022/01/03 02:33:48;;;;;;;24.17;17.43;;;;;;;8.55;64.90;94763.06;5065449;28;20208;-77
2022/01/03 02:36:15;;;;;;;23.93;18.17;;;;;;;8.74;64.81;94766.94;5064600;28;20413;-77
2022/01/03 02:38:41;;;;;;;20.87;17.73;;;;;;;8.62;64.89;94774.41;5064523;28;20834;-77
2022/01/03 02:41:07;;;;;;;22.07;18.97;;;;;;;8.79;64.54;94786.28;5065589;28;20408;-76
2022/01/03 02:43:32;;;;;;;31.07;20.50;;;;;;;8.86;64.12;94785.56;5065345;28;20434;-77
2022/01/03 02:45:58;;;;;;;23.03;19.80;;;;;;;8.59;64.22;94790.41;5065898;28;20166;-78
2022/01/03 02:48:25;;;;;;;24.03;19.07;;;;;;;8.63;65.19;94790.84;5065946;28;20181;-77
2022/01/03 02:50:51;;;;;;;30.30;21.73;;;;;;;8.85;64.53;94787.38;5064907;28;20190;-77
2022/01/03 02:53:16;;;;;;;22.30;18.20;;;;;;;8.72;65.46;94790.59;5065952;28;20500;-77
2022/01/03 02:55:41;;;;;;;24.10;17.90;;;;;;;8.96;62.83;94779.09;5065863;28;20167;-77
2022/01/03 02:58:07;;;;;;;22.13;18.47;;;;;;;8.79;64.53;94777.66;5064562;28;20344;-77
2022/01/03 03:00:45;;;;;;;22.13;17.93;;;;;;;8.25;65.97;94783.81;5064322;28;20162;-77
2022/01/03 03:03:11;;;;;;;28.67;19.47;;;;;;;8.59;64.90;94766.94;5058881;28;20183;-77
2022/01/03 03:05:37;;;;;;;30.33;21.23;;;;;;;8.53;64.87;94765.03;5063873;28;20417;-77
2022/01/03 03:08:03;;;;;;;30.73;20.77;;;;;;;8.73;65.00;94760.91;5065438;28;20480;-77
2022/01/03 03:10:28;;;;;;;26.43;17.03;;;;;;;9.15;62.54;94743.78;5065039;28;20219;-76
2022/01/03 03:12:54;;;;;;;25.43;17.67;;;;;;;8.72;64.25;94756.69;5055568;28;20198;-77
2022/01/03 03:15:20;;;;;;;22.63;18.73;;;;;;;9.04;63.53;94752.06;5043564;28;20285;-77
2022/01/03 03:17:47;;;;;;;25.37;19.70;;;;;;;8.72;64.37;94759.28;5045212;28;20475;-77
2022/01/03 03:20:15;;;;;;;26.23;19.60;;;;;;;8.63;65.16;94762.97;5044526;28;20233;-77
2022/01/03 03:22:42;;;;;;;24.80;19.77;;;;;;;9.02;62.97;94758.47;5043898;28;20430;-76
2022/01/03 03:25:16;;;;;;;25.10;18.83;;;;;;;8.71;64.82;94770.72;5047271;28;20901;-78
2022/01/03 03:27:44;;;;;;;25.47;20.00;;;;;;;8.53;64.96;94765.84;5063444;28;20428;-76
2022/01/03 03:30:16;;;;;;;22.50;19.20;;;;;;;8.71;64.88;94762.91;5064915;28;20444;-76
2022/01/03 03:32:44;;;;;;;25.07;19.83;;;;;;;9.02;62.30;94772.34;5065153;28;20416;-76
2022/01/03 03:35:10;;;;;;;21.57;17.40;;;;;;;8.55;65.17;94774.28;5064733;28;20401;-76
2022/01/03 03:37:36;;;;;;;21.77;15.83;;;;;;;8.78;63.47;94761.19;5046402;28;20441;-76
2022/01/03 03:40:03;;;;;;;21.53;17.10;;;;;;;8.51;64.76;94754.78;5044643;28;20493;-77
2022/01/03 03:42:29;;;;;;;22.53;16.83;;;;;;;8.55;64.43;94747.41;5044804;28;20179;-77
2022/01/03 03:44:54;;;;;;;19.17;16.70;;;;;;;8.32;65.16;94747.44;5044964;28;20459;-76
2022/01/03 03:47:20;;;;;;;25.03;18.10;;;;;;;7.87;66.87;94749.94;5044697;28;20176;-77
2022/01/03 03:49:45;;;;;;;25.20;17.17;;;;;;;7.86;67.54;94748.31;5063076;28;20171;-76
2022/01/03 03:52:11;;;;;;;23.13;17.10;;;;;;;8.26;66.89;94751.56;5064568;28;20225;-78
2022/01/03 03:54:36;;;;;;;22.83;18.80;;;;;;;8.10;66.00;94749.09;5064852;28;20270;-77
2022/01/03 03:57:03;;;;;;;24.80;17.80;;;;;;;7.92;66.40;94750.22;5064796;28;20185;-77
2022/01/03 03:59:28;;;;;;;20.80;16.20;;;;;;;8.29;65.82;94747.78;5095167;28;20189;-77
2022/01/03 04:01:55;;;;;;;22.70;18.00;;;;;;;8.21;66.45;94740.84;5046884;28;20524;-76
2022/01/03 04:04:21;;;;;;;25.07;17.77;;;;;;;8.32;66.16;94756.06;5062902;28;20170;-77
2022/01/03 04:06:47;;;;;;;26.10;18.07;;;;;;;8.60;65.27;94745.88;5063197;28;20769;-77
2022/01/03 04:09:13;;;;;;;24.30;18.23;;;;;;;8.57;65.16;94740.22;5064461;28;20435;-78
2022/01/03 04:11:39;;;;;;;22.53;17.77;;;;;;;9.02;64.39;94738.41;5064651;28;20511;-77
2022/01/03 04:14:05;;;;;;;22.40;16.70;;;;;;;8.82;63.89;94737.34;5063920;28;20432;-77
2022/01/03 04:16:31;;;;;;;20.70;16.30;;;;;;;9.11;63.03;94742.53;5064273;28;20178;-77
2022/01/03 04:18:56;;;;;;;18.53;15.27;;;;;;;8.57;64.85;94755.88;5064556;28;20201;-77
2022/01/03 04:21:22;;;;;;;20.83;17.43;;;;;;;8.32;65.49;94763.91;5062578;28;20457;-76
2022/01/03 04:23:47;;;;;;;22.87;17.90;;;;;;;8.24;65.23;94763.19;5062850;28;20186;-77
2022/01/03 04:26:13;;;;;;;23.03;16.97;;;;;;;8.46;65.17;94740.66;5095173;28;20179;-77
2022/01/03 04:28:39;;;;;;;22.10;16.50;;;;;;;8.57;64.74;94746.25;5066809;28;20166;-78
2022/01/03 04:31:05;;;;;;;22.20;17.90;;;;;;;8.35;65.28;94742.69;5068191;28;20191;-77
2022/01/03 04:33:31;;;;;;;22.97;17.20;;;;;;;8.64;65.11;94745.53;5066672;28;20417;-77
2022/01/03 04:35:57;;;;;;;24.27;17.07;;;;;;;8.70;64.76;94737.78;5066728;28;20441;-76
2022/01/03 04:38:23;;;;;;;21.60;16.47;;;;;;;8.72;64.89;94740.22;5063782;28;20539;-77
2022/01/03 04:40:49;;;;;;;19.77;15.80;;;;;;;8.89;63.38;94739.03;5066252;28;20639;-77
2022/01/03 04:43:14;;;;;;;24.27;17.40;;;;;;;7.68;67.54;94751.22;5067315;28;20236;-77
2022/01/03 04:45:40;;;;;;;23.17;15.73;;;;;;;7.52;68.26;94744.34;5066300;28;20163;-77
2022/01/03 04:48:05;;;;;;;21.03;16.43;;;;;;;8.18;66.30;94746.44;5067675;28;20209;-77
2022/01/03 04:50:31;;;;;;;18.37;16.40;;;;;;;8.36;65.84;94757.34;5067508;28;20631;-77
2022/01/03 04:52:56;;;;;;;20.50;16.67;;;;;;;8.39;65.87;94759.59;5067329;28;20200;-77
2022/01/03 04:55:22;;;;;;;22.60;17.83;;;;;;;8.61;64.52;94757.13;5065784;28;20174;-77
2022/01/03 04:57:49;;;;;;;20.57;15.87;;;;;;;8.92;63.75;94770.00;5066779;28;20221;-78
2022/01/03 05:00:15;;;;;;;23.83;17.07;;;;;;;8.76;63.80;94778.84;5067515;28;20197;-78
2022/01/03 05:02:40;;;;;;;19.60;16.17;;;;;;;8.06;65.75;94781.72;5053715;28;20447;-76
2022/01/03 05:05:06;;;;;;;20.20;16.70;;;;;;;8.38;64.91;94783.22;5066230;28;20436;-77
2022/01/03 05:07:32;;;;;;;20.33;16.23;;;;;;;8.58;64.68;94779.16;5067118;28;20178;-77
2022/01/03 05:09:57;;;;;;;18.47;14.70;;;;;;;8.47;64.33;94779.59;5099507;28;20995;-77
2022/01/03 05:12:23;;;;;;;17.47;13.97;;;;;;;7.88;66.64;94782.03;5066207;28;20499;-77
2022/01/03 05:14:48;;;;;;;21.47;17.40;;;;;;;7.99;67.03;94777.22;5065555;28;20174;-77
2022/01/03 05:17:14;;;;;;;22.17;16.40;;;;;;;8.45;65.19;94767.72;5063815;28;20665;-77
2022/01/03 05:19:39;;;;;;;24.90;16.50;;;;;;;7.99;66.01;94774.59;5064920;28;20244;-77
2022/01/03 05:22:05;;;;;;;22.03;17.10;;;;;;;8.37;66.11;94758.97;5065102;28;20182;-77
2022/01/03 05:24:35;;;;;;;20.77;15.97;;;;;;;8.31;65.29;94757.06;5067097;28;20174;-78
2022/01/03 05:27:05;;;;;;;22.07;17.63;;;;;;;8.25;66.08;94757.75;5065987;28;20428;-77
2022/01/03 05:29:32;;;;;;;25.83;17.07;;;;;;;8.32;65.76;94761.28;5067024;28;20428;-77
2022/01/03 05:31:57;;;;;;;20.70;16.40;;;;;;;8.37;65.10;94753.75;5064983;28;20936;-77
2022/01/03 05:34:22;;;;;;;23.63;16.93;;;;;;;8.24;65.79;94761.38;5065321;28;20444;-78
2022/01/03 05:36:48;;;;;;;20.63;17.33;;;;;;;8.29;65.98;94761.66;5056064;28;20183;-78
2022/01/03 05:39:14;;;;;;;18.63;16.57;;;;;;;8.75;64.14;94753.72;5057044;28;20178;-77
2022/01/03 05:41:39;;;;;;;18.97;15.93;;;;;;;8.33;65.04;94743.88;5065579;28;20181;-77
2022/01/03 05:44:05;;;;;;;23.53;17.30;;;;;;;7.98;65.90;94749.53;5065160;28;20530;-77
2022/01/03 05:46:30;;;;;;;23.40;16.07;;;;;;;8.27;64.97;94748.00;5067020;28;20552;-77
2022/01/03 05:48:56;;;;;;;23.10;16.20;;;;;;;8.02;66.62;94744.78;5058531;28;20531;-77
2022/01/03 05:51:21;;;;;;;26.43;19.20;;;;;;;8.11;66.52;94753.34;5045210;28;22222;-77
2022/01/03 05:53:47;;;;;;;26.17;18.43;;;;;;;8.13;65.69;94759.19;5099109;28;20210;-77
2022/01/03 05:56:12;;;;;;;26.20;18.43;;;;;;;8.14;65.89;94760.81;5065472;28;20178;-78
2022/01/03 05:58:38;;;;;;;23.23;16.53;;;;;;;8.48;65.13;94762.97;5066583;28;20245;-78
2022/01/03 06:01:03;;;;;;;17.97;16.03;;;;;;;8.44;64.21;94763.50;5065852;28;20189;-77
2022/01/03 06:03:35;;;;;;;22.17;17.00;;;;;;;7.95;65.80;94764.72;5066684;28;20177;-77
2022/01/03 06:08:26;;;;;;;21.23;17.40;;;;;;;8.04;66.18;94768.06;5046452;28;20418;-77
2022/01/03 06:10:53;;;;;;;25.30;17.00;;;;;;;7.54;67.29;94765.00;5045049;28;20187;-78
2022/01/03 06:13:18;;;;;;;22.90;17.33;;;;;;;8.33;65.44;94768.13;5046497;28;20421;-77
2022/01/03 06:15:44;;;;;;;25.30;18.00;;;;;;;7.64;66.91;94775.97;5051464;28;20532;-77
2022/01/03 06:18:13;;;;;;;25.20;19.13;;;;;;;8.06;65.58;94768.69;5067335;28;20178;-76
2022/01/03 06:20:40;;;;;;;28.20;19.67;;;;;;;7.56;66.70;94779.44;5062514;28;20449;-76
2022/01/03 06:23:06;;;;;;;24.83;20.90;;;;;;;7.43;68.53;94785.22;5047168;28;20425;-76
2022/01/03 06:25:32;;;;;;;22.97;18.60;;;;;;;8.28;65.89;94782.69;5061441;28;20414;-77
2022/01/03 06:27:57;;;;;;;25.77;19.50;;;;;;;7.85;67.09;94777.16;5061102;28;20429;-76
2022/01/03 06:30:22;;;;;;;31.73;23.17;;;;;;;7.41;67.94;94778.56;5045697;28;20198;-77
2022/01/03 06:32:48;;;;;;;29.13;24.50;;;;;;;7.94;66.79;94781.31;5046155;28;20198;-77
2022/01/03 06:35:13;;;;;;;31.70;23.47;;;;;;;8.23;65.46;94772.78;5049157;28;20167;-76
2022/01/03 06:37:39;;;;;;;32.30;21.00;;;;;;;8.20;65.36;94770.53;5061015;28;20266;-77
2022/01/03 06:40:06;;;;;;;29.77;21.60;;;;;;;7.84;66.51;94765.94;5054326;28;20210;-77
2022/01/03 06:42:32;;;;;;;24.27;20.23;;;;;;;8.18;66.10;94762.09;5063744;28;20186;-77
2022/01/03 06:44:58;;;;;;;27.67;22.70;;;;;;;8.00;66.06;94773.59;5045758;28;20564;-77
2022/01/03 06:47:24;;;;;;;30.50;19.90;;;;;;;8.02;65.88;94761.25;5044082;28;20434;-77
2022/01/03 06:49:50;;;;;;;28.07;21.00;;;;;;;7.98;66.08;94772.16;5044155;28;20175;-77
2022/01/03 06:52:16;;;;;;;25.20;18.40;;;;;;;8.10;66.31;94762.13;5045282;28;20430;-77
2022/01/03 06:54:41;;;;;;;26.37;19.73;;;;;;;7.10;68.73;94753.34;5045506;28;20235;-77
2022/01/03 06:57:07;;;;;;;24.53;19.37;;;;;;;7.79;66.97;94768.25;5060972;28;20215;-77
2022/01/03 06:59:33;;;;;;;27.87;20.10;;;;;;;8.10;66.52;94754.31;5045472;28;20182;-77
2022/01/03 07:33:17;;;;;;;23.77;16.33;;;;;;;9.16;63.74;94734.13;5003790;23;20480;-78
2022/01/03 07:35:46;;;;;;;20.77;16.63;;;;;;;9.62;62.51;94733.03;4945321;28;20490;-77
2022/01/03 07:38:11;;;;;;;20.53;17.07;;;;;;;9.23;63.92;94729.00;4947501;29;20419;-77
2022/01/03 07:40:37;;;;;;;20.87;17.30;;;;;;;9.32;63.48;94735.75;4930622;29;20447;-77
2022/01/03 08:01:40;;;;;;;;;;;;;;;;;;;;;
2022/01/03 08:04:19;;;;;;;20.00;15.03;;;;;;;10.15;60.81;94741.38;4871060;29;20455;-77
2022/01/03 08:16:19;;;;;;;19.38;17.02;;;;;;;10.77;59.97;94747.63;4954551;28;20481;-78
2022/01/03 08:18:44;;;;;;;20.47;16.47;;;;;;;10.85;59.83;94744.06;4970497;29;20181;-77
2022/01/03 08:21:43;;;;;;;18.53;16.37;;;;;;;10.84;60.22;94752.91;4952940;29;20717;-78
2022/01/03 08:24:50;;;;;;;25.40;16.80;;;;;;;11.25;59.43;94747.69;4937975;29;20238;-77
2022/01/03 08:27:16;;;;;;;24.27;15.80;;;;;;;11.23;58.36;94743.63;4894495;29;20516;-77
2022/01/03 08:29:45;;;;;;;20.63;16.83;;;;;;;11.23;58.42;94738.38;4894898;29;20968;-78
2022/01/03 08:32:10;;;;;;;19.10;17.00;;;;;;;11.40;58.12;94741.47;4914514;29;20199;-78
2022/01/03 08:34:36;;;;;;;19.47;14.97;;;;;;;11.71;57.77;94747.00;4933417;29;20439;-78
2022/01/03 08:37:01;;;;;;;21.00;15.53;;;;;;;11.60;57.78;94741.53;4933991;29;20179;-79
2022/01/03 08:39:27;;;;;;;17.87;15.83;;;;;;;11.90;57.15;94737.59;4933593;29;20183;-78
2022/01/03 08:44:56;;;;;;;20.83;15.60;;;;;;;12.30;56.50;94727.09;4950279;29;20436;-77
2022/01/03 08:47:22;;;;;;;20.80;14.80;;;;;;;12.14;55.82;94722.28;4933577;29;20875;-77
2022/01/03 08:49:48;;;;;;;27.63;16.00;;;;;;;12.36;56.13;94712.38;4948184;29;20199;-78
2022/01/03 08:52:15;;;;;;;20.60;16.20;;;;;;;12.43;55.95;94699.25;4968084;29;20449;-78
2022/01/03 08:54:40;;;;;;;18.40;14.87;;;;;;;12.09;55.46;94701.09;4952300;29;20506;-78
2022/01/03 08:57:06;;;;;;;17.07;14.33;;;;;;;11.99;57.01;94698.03;4952102;29;20415;-78
2022/01/03 08:59:31;;;;;;;17.87;14.47;;;;;;;12.37;55.15;94685.13;4952426;29;20187;-78
2022/01/03 09:01:59;;;;;;;21.40;15.07;;;;;;;12.24;56.22;94691.19;4948881;29;20183;-78
2022/01/03 09:04:28;;;;;;;17.70;13.77;;;;;;;12.57;55.16;94679.81;4967432;29;20230;-78
2022/01/03 09:06:53;;;;;;;19.00;15.10;;;;;;;12.70;54.78;94682.41;4969495;29;20412;-78
2022/01/03 09:13:03;;;;;;;14.80;13.10;;;;;;;13.11;52.88;94693.59;4871906;29;20235;-77
2022/01/03 09:15:37;;;;;;;20.00;15.53;;;;;;;13.41;53.36;94688.66;4889751;29;20414;-77
2022/01/03 09:18:08;;;;;;;18.17;13.70;;;;;;;13.71;51.52;94684.63;4911611;29;20246;-78
2022/01/03 09:20:34;;;;;;;18.13;15.50;;;;;;;13.28;53.70;94670.28;4913196;29;20420;-78
2022/01/03 09:23:08;;;;;;;18.53;14.57;;;;;;;13.91;52.47;94668.72;4912523;29;20784;-78
2022/01/03 09:29:02;;;;;;;20.83;15.53;;;;;;;13.97;53.37;94670.47;4966494;28;20434;-78
2022/01/03 09:30:59;;;;;;;20.67;17.63;;;;;;;14.79;52.08;94657.16;4956051;28;20465;-78
2022/01/03 09:33:24;;;;;;;19.03;15.30;;;;;;;14.62;51.54;94649.84;4967917;29;20513;-79
2022/01/03 09:35:52;;;;;;;18.30;15.67;;;;;;;14.70;50.42;94650.56;4968196;28;20418;-78
2022/01/03 09:38:18;;;;;;;19.93;17.37;;;;;;;14.46;50.24;94650.41;4967404;29;20198;-78
2022/01/03 09:40:48;;;;;;;22.80;16.87;;;;;;;14.75;49.13;94642.81;4967974;29;20999;-78
2022/01/03 09:43:20;;;;;;;16.47;14.70;;;;;;;15.13;48.28;94631.22;4967418;29;20199;-77
2022/01/03 09:45:48;;;;;;;19.73;15.90;;;;;;;14.83;49.64;94637.25;4950215;29;20399;-78
2022/01/03 09:48:14;;;;;;;21.80;15.30;;;;;;;15.29;47.82;94629.78;4948804;29;20479;-78
2022/01/03 09:50:42;;;;;;;18.77;15.03;;;;;;;15.54;46.49;94624.38;4948175;29;20550;-79
2022/01/03 09:53:09;;;;;;;15.63;13.83;;;;;;;15.52;47.93;94631.72;4951816;29;20435;-78
2022/01/03 09:55:36;;;;;;;25.67;16.27;;;;;;;15.72;48.33;94637.47;4966987;29;20434;-77
2022/01/03 09:58:01;;;;;;;20.53;16.50;;;;;;;15.73;47.12;94619.84;4966624;29;20497;-78
2022/01/03 10:00:27;;;;;;;16.50;14.80;;;;;;;16.22;46.42;94620.47;4967753;29;21002;-77
2022/01/03 10:02:54;;;;;;;18.90;16.10;;;;;;;16.02;46.46;94610.25;4966766;29;20194;-78
2022/01/03 10:05:21;;;;;;;16.97;14.87;;;;;;;16.13;45.53;94601.53;4966574;29;20230;-78
2022/01/03 10:07:48;;;;;;;20.47;14.13;;;;;;;16.38;45.51;94603.13;4966891;29;20433;-78
2022/01/03 10:10:14;;;;;;;18.57;15.87;;;;;;;16.45;44.19;94595.88;4966490;29;20485;-78
2022/01/03 10:12:40;;;;;;;18.63;16.63;;;;;;;16.77;44.74;94592.84;4966804;28;20794;-77
2022/01/03 10:15:08;;;;;;;21.10;15.77;;;;;;;16.85;44.35;94579.28;4966634;29;20648;-77
2022/01/03 10:17:41;;;;;;;17.63;15.90;;;;;;;16.83;44.04;94581.34;4966804;28;20496;-77
2022/01/03 10:20:12;;;;;;;16.93;15.00;;;;;;;16.84;43.41;94576.88;4967661;28;20433;-78
2022/01/03 10:22:39;;;;;;;20.20;15.23;;;;;;;16.94;43.82;94569.94;4963413;29;20446;-78
2022/01/03 10:25:14;;;;;;;20.40;15.43;;;;;;;17.00;42.99;94570.03;4962608;28;20434;-78
2022/01/03 10:28:04;;;;;;;18.63;16.17;;;;;;;16.23;45.00;94565.81;4963300;29;20489;-77
2022/01/03 10:30:32;;;;;;;23.40;17.53;;;;;;;16.33;44.83;94566.03;4965496;29;20598;-78
2022/01/03 10:33:03;;;;;;;21.90;17.50;;;;;;;16.05;45.08;94567.56;4965339;29;20460;-77
2022/01/03 10:35:45;;;;;;;19.70;17.70;;;;;;;16.30;45.11;94556.75;4968474;28;20425;-78
2022/01/03 10:38:29;;;;;;;23.80;18.63;;;;;;;16.86;44.09;94543.88;4966139;29;20949;-78
2022/01/03 10:41:15;;;;;;;22.67;17.90;;;;;;;16.81;43.69;94543.75;4965982;29;20502;-78
2022/01/03 10:43:59;;;;;;;19.00;17.07;;;;;;;17.07;43.04;94542.41;4965811;28;20430;-78
2022/01/03 10:46:34;;;;;;;19.30;15.90;;;;;;;17.18;42.72;94532.81;4966099;29;20453;-77
2022/01/03 10:49:16;;;;;;;20.30;18.03;;;;;;;17.09;42.51;94518.38;4966017;29;20967;-77
2022/01/03 10:51:42;;;;;;;21.87;16.60;;;;;;;17.01;43.28;94516.91;4966097;29;20462;-78
2022/01/03 10:54:10;;;;;;;19.53;17.50;;;;;;;17.13;43.20;94519.50;4966443;29;20917;-78
2022/01/03 10:56:41;;;;;;;20.33;18.20;;;;;;;17.34;42.44;94504.78;4965783;29;21003;-78
2022/01/03 10:59:15;;;;;;;23.07;19.07;;;;;;;17.30;42.26;94507.13;4965424;29;20414;-77
2022/01/03 11:01:47;;;;;;;21.53;16.73;;;;;;;16.63;43.24;94513.00;4965128;29;20480;-76
2022/01/03 11:13:40;;;;;;;27.20;19.50;;;;;;;17.16;42.93;94497.88;4945656;29;21254;-78
2022/01/03 11:19:06;;;;;;;18.43;16.50;;;;;;;17.26;42.92;94487.44;4965205;29;20441;-77
2022/01/03 11:21:44;;;;;;;18.70;16.10;;;;;;;17.80;41.42;94479.03;4949113;29;20442;-77
2022/01/03 11:24:14;;;;;;;22.57;18.30;;;;;;;17.75;41.51;94469.16;4949594;29;20926;-77
2022/01/03 11:26:48;;;;;;;26.00;19.33;;;;;;;18.16;40.89;94460.19;4949571;29;20445;-78
2022/01/03 11:29:18;;;;;;;22.37;18.60;;;;;;;18.43;40.12;94463.69;4949642;29;20406;-78
2022/01/03 11:31:43;;;;;;;21.37;18.47;;;;;;;18.63;40.26;94457.00;4949272;29;20479;-77
2022/01/03 11:34:11;;;;;;;21.10;18.90;;;;;;;18.93;38.54;94448.59;4948589;29;20461;-77
2022/01/03 11:36:39;;;;;;;28.80;20.67;;;;;;;18.36;39.69;94446.38;4950484;29;20186;-78
2022/01/03 11:39:16;;;;;;;20.83;18.83;;;;;;;18.54;39.28;94446.84;4954657;29;20422;-78
2022/01/03 11:41:43;;;;;;;23.57;20.30;;;;;;;18.54;39.46;94449.50;4937531;29;20429;-77
2022/01/03 11:44:12;;;;;;;26.30;23.53;;;;;;;18.35;40.04;94450.88;4971565;29;20410;-78
2022/01/03 11:46:40;;;;;;;23.50;20.53;;;;;;;18.74;39.00;94440.16;4970425;29;20487;-78
2022/01/03 11:49:06;;;;;;;24.90;21.30;;;;;;;18.78;39.05;94441.28;4970293;29;20422;-78
2022/01/03 11:51:33;;;;;;;23.63;21.13;;;;;;;18.74;38.99;94440.16;4970471;29;20512;-78
2022/01/03 11:54:01;;;;;;;28.83;22.17;;;;;;;19.14;38.64;94443.47;4953456;29;20198;-77
2022/01/03 11:56:29;;;;;;;27.27;21.90;;;;;;;19.45;37.90;94426.72;4970549;29;20478;-78
2022/01/03 11:59:20;;;;;;;21.83;19.60;;;;;;;20.03;36.80;94428.66;4970869;29;20453;-77
2022/01/03 12:04:40;;;;;;;23.23;19.07;;;;;;;19.00;39.22;94425.31;4970296;29;20401;-77
2022/01/03 12:07:11;;;;;;;31.20;20.83;;;;;;;19.57;37.67;94418.56;4970370;29;20454;-78
2022/01/03 12:09:50;;;;;;;23.43;20.97;;;;;;;18.96;38.11;94407.53;4970203;29;20414;-77
2022/01/03 12:12:31;;;;;;;29.77;20.00;;;;;;;19.29;38.17;94412.56;4969786;29;20509;-78
2022/01/03 12:15:01;;;;;;;24.40;20.10;;;;;;;19.29;38.23;94409.09;4969958;29;20517;-77
2022/01/03 12:17:47;;;;;;;23.67;21.17;;;;;;;19.37;37.74;94418.44;4969717;29;20469;-77
2022/01/03 12:20:13;;;;;;;28.17;20.00;;;;;;;19.91;36.94;94409.50;4953474;29;20401;-78
2022/01/03 12:22:53;;;;;;;27.63;21.23;;;;;;;19.26;37.59;94418.38;4969229;29;20452;-78
2022/01/03 12:25:29;;;;;;;22.87;20.37;;;;;;;19.40;37.80;94412.63;4970159;29;20440;-78
2022/01/03 12:28:07;;;;;;;25.27;22.33;;;;;;;19.38;37.69;94415.53;4952582;29;20430;-78
2022/01/03 12:30:53;;;;;;;23.90;21.43;;;;;;;19.56;37.18;94406.38;4952470;29;20445;-77
2022/01/03 12:33:19;;;;;;;24.77;22.17;;;;;;;19.21;37.88;94414.88;4970028;29;20461;-77
2022/01/03 12:35:47;;;;;;;26.00;22.20;;;;;;;18.72;38.69;94408.63;4970061;29;20414;-78
2022/01/03 12:38:17;;;;;;;35.40;22.27;;;;;;;18.58;39.43;94406.63;4969435;29;20817;-77
2022/01/03 12:40:42;;;;;;;30.97;22.33;;;;;;;18.52;39.70;94405.75;4969120;29;20429;-77
2022/01/03 12:43:13;;;;;;;29.00;23.47;;;;;;;18.62;39.82;94399.75;4951349;29;20512;-77
2022/01/03 12:45:43;;;;;;;24.70;20.83;;;;;;;18.54;39.52;94393.84;4969264;28;20186;-78
2022/01/03 12:48:51;;;;;;;27.83;21.90;;;;;;;18.41;39.99;94393.44;4965852;29;20437;-77
2022/01/03 12:51:00;;;;;;;26.57;21.60;;;;;;;18.09;40.37;94387.00;4959422;28;20795;-78
2022/01/03 12:53:28;;;;;;;29.80;22.10;;;;;;;18.33;39.78;94378.81;4967930;29;20610;-78
2022/01/03 12:56:00;;;;;;;24.87;21.60;;;;;;;17.98;40.43;94387.94;4968227;29;21054;-78
2022/01/03 12:58:25;;;;;;;24.60;20.93;;;;;;;18.37;39.93;94374.59;4968979;29;20530;-77
2022/01/03 13:00:58;;;;;;;26.83;19.80;;;;;;;17.34;41.48;94370.69;4966166;29;20411;-77